createdAt,value
2019-03-19T00:00:34.341Z,1.51
2019-03-19T00:03:00.672Z,1.33
2019-03-19T00:05:26.730Z,1.34
2019-03-19T00:07:52.825Z,1.43
2019-03-19T00:10:18.940Z,1.33
2019-03-19T00:12:46.130Z,1.23
2019-03-19T00:15:12.415Z,1.23
2019-03-19T00:17:38.489Z,1.21
2019-03-19T00:20:08.383Z,1.32
2019-03-19T00:22:34.447Z,1.26
2019-03-19T00:25:00.545Z,1.27
2019-03-19T00:27:26.686Z,1.13
2019-03-19T00:29:52.883Z,1.06
2019-03-19T00:32:18.973Z,0.76
2019-03-19T00:34:45.215Z,0.70
2019-03-19T00:37:11.310Z,0.78
2019-03-19T00:39:37.396Z,0.65
2019-03-19T00:42:03.551Z,0.85
2019-03-19T00:44:29.785Z,0.39
2019-03-19T00:46:55.940Z,0.35
2019-03-19T00:49:22.007Z,0.38
2019-03-19T00:51:48.137Z,0.54
2019-03-19T00:54:14.243Z,0.59
2019-03-19T00:56:40.335Z,0.69
2019-03-19T00:59:06.648Z,0.65
2019-03-19T01:01:32.756Z,0.41
2019-03-19T01:03:58.820Z,0.30
2019-03-19T01:06:24.998Z,0.41
2019-03-19T01:08:51.148Z,0.45
2019-03-19T01:11:17.225Z,0.41
2019-03-19T01:13:43.337Z,0.35
2019-03-19T01:16:09.520Z,0.45
2019-03-19T01:18:35.729Z,0.47
2019-03-19T01:21:02.027Z,0.40
2019-03-19T01:23:28.414Z,0.40
2019-03-19T01:25:55.829Z,0.26
2019-03-19T01:28:22.177Z,0.18
2019-03-19T01:30:48.279Z,-0.16
2019-03-19T01:33:14.372Z,-0.24
2019-03-19T01:35:40.471Z,-0.43
2019-03-19T01:38:06.539Z,-0.40
2019-03-19T01:40:32.638Z,-0.40
2019-03-19T01:42:58.701Z,-0.34
2019-03-19T01:45:24.995Z,-0.33
2019-03-19T01:47:51.204Z,-0.48
2019-03-19T01:50:17.383Z,-0.22
2019-03-19T01:52:43.606Z,-0.13
2019-03-19T01:55:14.296Z,-0.33
2019-03-19T01:57:42.002Z,-0.46
2019-03-19T02:00:15.648Z,-0.51
2019-03-19T02:02:41.789Z,-0.50
2019-03-19T02:05:08.118Z,-0.51
2019-03-19T02:07:34.169Z,-0.40
2019-03-19T02:10:00.440Z,-0.33
2019-03-19T02:12:26.643Z,-0.37
2019-03-19T02:14:52.959Z,-0.42
2019-03-19T02:17:19.050Z,-0.36
2019-03-19T02:19:47.886Z,-0.37
2019-03-19T02:22:14.099Z,-0.32
2019-03-19T02:24:40.190Z,-0.28
2019-03-19T02:27:06.286Z,-0.29
2019-03-19T02:29:32.384Z,-0.23
2019-03-19T02:31:58.489Z,-0.13
2019-03-19T02:34:24.559Z,-0.28
2019-03-19T02:36:50.694Z,-0.35
2019-03-19T02:39:16.835Z,-0.34
2019-03-19T02:41:42.930Z,-0.43
2019-03-19T02:44:09.036Z,-0.49
2019-03-19T02:46:35.161Z,-0.56
2019-03-19T02:49:02.517Z,-0.62
2019-03-19T02:51:28.615Z,-0.51
2019-03-19T02:53:54.691Z,-0.71
2019-03-19T02:56:32.760Z,-0.84
2019-03-19T02:58:48.819Z,-0.83
2019-03-19T03:01:15.022Z,-0.78
2019-03-19T03:03:41.080Z,-0.80
2019-03-19T03:06:07.165Z,-0.78
2019-03-19T03:08:33.255Z,-0.73
2019-03-19T03:10:59.805Z,-0.69
2019-03-19T03:13:25.938Z,-0.73
2019-03-19T03:15:51.997Z,-0.93
2019-03-19T03:18:18.266Z,-0.97
2019-03-19T03:20:44.486Z,-0.91
2019-03-19T03:23:10.658Z,-0.95
2019-03-19T03:25:36.735Z,-0.94
2019-03-19T03:28:03.135Z,-1.00
2019-03-19T03:30:29.339Z,-1.04
2019-03-19T03:32:55.453Z,-1.05
2019-03-19T03:35:21.669Z,-1.07
2019-03-19T03:37:47.925Z,-1.13
2019-03-19T03:40:15.222Z,-1.17
2019-03-19T03:42:43.110Z,-1.04
2019-03-19T03:45:11.155Z,-1.04
2019-03-19T03:47:37.458Z,-1.14
2019-03-19T03:50:15.359Z,-1.17
2019-03-19T03:52:41.448Z,-1.18
2019-03-19T03:55:11.371Z,-1.21
2019-03-19T03:57:37.660Z,-1.16
2019-03-19T04:00:13.201Z,-1.33
2019-03-19T04:02:39.259Z,-1.37
2019-03-19T04:05:06.460Z,-1.42
2019-03-19T04:07:32.651Z,-1.45
2019-03-19T04:09:58.824Z,-1.47
2019-03-19T04:12:24.925Z,-1.38
2019-03-19T04:14:51.102Z,-1.35
2019-03-19T04:17:17.294Z,-1.37
2019-03-19T04:19:43.390Z,-1.36
2019-03-19T04:22:09.545Z,-1.31
2019-03-19T04:24:35.839Z,-1.28
2019-03-19T04:27:14.886Z,-1.28
2019-03-19T04:29:30.217Z,-1.28
2019-03-19T04:31:56.315Z,-1.23
2019-03-19T04:34:22.373Z,-1.34
2019-03-19T04:36:48.474Z,-1.35
2019-03-19T04:39:14.631Z,-1.30
2019-03-19T04:41:40.729Z,-1.32
2019-03-19T04:44:06.864Z,-1.28
2019-03-19T04:46:32.920Z,-1.27
2019-03-19T04:48:58.985Z,-1.26
2019-03-19T04:51:25.083Z,-1.22
2019-03-19T04:53:51.187Z,-1.43
2019-03-19T04:56:17.281Z,-1.48
2019-03-19T04:58:43.365Z,-1.45
2019-03-19T05:01:09.448Z,-1.46
2019-03-19T05:03:35.531Z,-1.35
2019-03-19T05:06:01.775Z,-1.35
2019-03-19T05:08:27.880Z,-1.33
2019-03-19T05:10:54.060Z,-1.30
2019-03-19T05:13:20.189Z,-1.30
2019-03-19T05:15:46.281Z,-1.44
2019-03-19T05:18:12.369Z,-1.42
2019-03-19T05:20:38.566Z,-1.33
2019-03-19T05:23:04.767Z,-1.29
2019-03-19T05:25:30.954Z,-1.32
2019-03-19T05:27:57.069Z,-1.34
2019-03-19T05:30:23.239Z,-1.32
2019-03-19T05:32:49.463Z,-1.25
2019-03-19T05:35:15.619Z,-1.25
2019-03-19T05:37:42.838Z,-1.37
2019-03-19T05:40:10.751Z,-1.32
2019-03-19T05:42:37.039Z,-1.36
2019-03-19T05:45:07.551Z,-1.33
2019-03-19T05:47:38.266Z,-1.31
2019-03-19T05:50:01.846Z,-1.34
2019-03-19T05:52:28.046Z,-1.29
2019-03-19T05:54:54.150Z,-1.38
2019-03-19T05:57:20.263Z,-1.38
2019-03-19T05:59:46.332Z,-1.41
2019-03-19T06:02:12.557Z,-1.37
2019-03-19T06:04:39.004Z,-1.26
2019-03-19T06:07:05.276Z,-1.31
2019-03-19T06:09:31.528Z,-1.25
2019-03-19T06:11:57.627Z,-1.14
2019-03-19T06:14:23.747Z,-1.06
2019-03-19T06:16:49.820Z,-0.93
2019-03-19T06:19:15.959Z,-0.96
2019-03-19T06:21:42.086Z,-0.83
2019-03-19T06:24:08.290Z,-0.69
2019-03-19T06:26:34.505Z,-0.63
2019-03-19T06:29:00.601Z,-0.44
2019-03-19T06:31:26.694Z,-0.29
2019-03-19T06:33:52.800Z,-0.24
2019-03-19T06:36:18.918Z,-0.17
2019-03-19T06:38:45.021Z,-0.06
2019-03-19T06:41:11.138Z,0.29
2019-03-19T06:43:37.279Z,-0.13
2019-03-19T06:46:03.544Z,-0.32
2019-03-19T06:48:29.712Z,-0.18
2019-03-19T06:50:55.832Z,-0.15
2019-03-19T06:53:22.109Z,0.32
2019-03-19T06:55:48.355Z,0.79
2019-03-19T06:58:14.435Z,0.92
2019-03-19T07:00:40.643Z,1.02
2019-03-19T07:03:06.847Z,1.19
2019-03-19T07:05:32.950Z,1.25
2019-03-19T07:07:59.041Z,1.65
2019-03-19T07:10:25.175Z,1.49
2019-03-19T07:12:51.268Z,1.46
2019-03-19T07:15:19.681Z,1.95
2019-03-19T07:17:46.001Z,2.19
2019-03-19T07:20:23.061Z,1.94
2019-03-19T07:22:49.253Z,2.08
2019-03-19T07:25:15.756Z,1.87
2019-03-19T07:27:42.118Z,2.48
2019-03-19T07:30:11.731Z,1.87
2019-03-19T07:32:37.839Z,1.92
2019-03-19T07:35:04.275Z,1.99
2019-03-19T07:37:30.355Z,2.81
2019-03-19T07:39:56.536Z,2.88
2019-03-19T07:42:22.649Z,2.95
2019-03-19T07:44:48.714Z,2.98
2019-03-19T07:47:14.852Z,3.14
2019-03-19T07:49:40.971Z,4.35
2019-03-19T07:52:07.172Z,4.67
2019-03-19T07:54:33.240Z,3.41
2019-03-19T07:56:59.338Z,3.71
2019-03-19T07:59:25.490Z,4.01
2019-03-19T08:01:51.576Z,4.11
2019-03-19T08:04:17.683Z,3.87
2019-03-19T08:06:43.910Z,3.77
2019-03-19T08:09:10.102Z,4.30
2019-03-19T08:11:36.183Z,4.73
2019-03-19T08:14:02.523Z,4.90
2019-03-19T08:16:28.607Z,5.39
2019-03-19T08:18:54.922Z,5.72
2019-03-19T08:21:22.566Z,5.58
2019-03-19T08:23:49.077Z,5.42
2019-03-19T08:26:15.169Z,5.04
2019-03-19T08:28:41.348Z,4.93
2019-03-19T08:31:07.464Z,4.92
2019-03-19T08:33:33.528Z,4.81
2019-03-19T08:36:09.031Z,5.68
2019-03-19T08:38:28.059Z,5.95
2019-03-19T08:40:54.268Z,6.54
2019-03-19T08:43:20.617Z,6.85
2019-03-19T08:45:46.789Z,7.21
2019-03-19T08:48:12.936Z,7.26
2019-03-19T08:50:39.016Z,7.80
2019-03-19T08:53:05.421Z,8.31
2019-03-19T08:55:31.507Z,7.93
2019-03-19T08:57:57.614Z,7.71
2019-03-19T09:00:25.678Z,8.20
2019-03-19T09:02:51.973Z,8.14
2019-03-19T09:05:18.233Z,8.57
2019-03-19T09:07:44.450Z,8.75
2019-03-19T09:10:12.221Z,8.54
2019-03-19T09:12:38.461Z,7.62
2019-03-19T09:15:10.383Z,6.13
2019-03-19T09:17:36.808Z,6.94
2019-03-19T09:20:13.535Z,6.67
2019-03-19T09:22:40.883Z,7.50
2019-03-19T09:25:08.738Z,8.17
2019-03-19T09:27:34.951Z,8.47
2019-03-19T09:30:01.131Z,7.60
2019-03-19T09:32:27.320Z,6.50
2019-03-19T09:34:53.437Z,6.45
2019-03-19T09:37:19.614Z,6.19
2019-03-19T09:39:45.740Z,6.30
2019-03-19T09:42:11.931Z,6.50
2019-03-19T09:44:38.079Z,6.47
2019-03-19T09:47:04.248Z,5.77
2019-03-19T09:49:30.370Z,6.56
2019-03-19T09:51:56.553Z,6.24
2019-03-19T09:54:22.671Z,6.46
2019-03-19T09:56:48.900Z,6.93
2019-03-19T09:59:15.104Z,6.88
2019-03-19T10:01:41.310Z,6.54
2019-03-19T10:04:07.490Z,6.27
2019-03-19T10:06:33.710Z,6.67
2019-03-19T10:08:59.787Z,7.18
2019-03-19T10:11:26.004Z,6.94
2019-03-19T10:13:52.279Z,6.62
2019-03-19T10:16:18.379Z,6.50
2019-03-19T10:18:44.464Z,6.44
2019-03-19T10:21:10.669Z,6.68
2019-03-19T10:23:36.769Z,7.01
2019-03-19T10:26:03.057Z,6.98
2019-03-19T10:28:29.200Z,6.81
2019-03-19T10:30:55.309Z,6.85
2019-03-19T10:33:21.416Z,6.97
2019-03-19T10:35:47.699Z,7.13
2019-03-19T10:38:14.000Z,7.11
2019-03-19T10:40:40.210Z,6.93
2019-03-19T10:43:06.823Z,6.73
2019-03-19T10:45:33.027Z,6.85
2019-03-19T10:47:59.219Z,6.85
2019-03-19T10:50:26.339Z,6.98
2019-03-19T10:52:53.735Z,7.15
2019-03-19T10:55:20.168Z,7.26
2019-03-19T10:57:46.585Z,7.27
2019-03-19T11:00:15.668Z,7.41
2019-03-19T11:02:41.903Z,7.16
2019-03-19T11:05:10.671Z,7.19
2019-03-19T11:07:36.794Z,6.91
2019-03-19T11:10:07.063Z,7.28
2019-03-19T11:12:33.161Z,7.38
2019-03-19T11:14:59.374Z,7.36
2019-03-19T11:17:25.605Z,6.94
2019-03-19T11:19:51.685Z,7.05
2019-03-19T11:22:17.933Z,7.41
2019-03-19T11:24:44.030Z,6.88
2019-03-19T11:27:10.202Z,7.15
2019-03-19T11:29:36.320Z,7.52
2019-03-19T11:32:02.519Z,7.28
2019-03-19T11:34:28.647Z,7.30
2019-03-19T11:36:57.981Z,7.56
2019-03-19T11:39:22.860Z,8.41
2019-03-19T11:41:48.932Z,8.86
2019-03-19T11:44:15.050Z,9.46
2019-03-19T11:46:41.206Z,9.71
2019-03-19T11:49:07.546Z,9.83
2019-03-19T11:51:33.728Z,8.96
2019-03-19T11:53:59.993Z,8.41
2019-03-19T11:56:26.264Z,8.29
2019-03-19T11:58:52.438Z,7.92
2019-03-19T12:01:18.575Z,7.89
2019-03-19T12:03:44.776Z,8.40
2019-03-19T12:06:10.903Z,8.28
2019-03-19T12:08:36.979Z,8.46
2019-03-19T12:11:03.397Z,8.64
2019-03-19T12:13:29.713Z,9.48
2019-03-19T12:15:55.970Z,10.38
2019-03-19T12:18:22.232Z,9.35
2019-03-19T12:20:48.525Z,8.85
2019-03-19T12:23:14.752Z,8.80
2019-03-19T12:25:40.945Z,9.23
2019-03-19T12:28:07.275Z,8.95
2019-03-19T12:30:33.580Z,8.14
2019-03-19T12:32:59.912Z,8.13
2019-03-19T12:35:26.068Z,8.63
2019-03-19T12:37:52.319Z,8.94
2019-03-19T12:40:22.406Z,8.55
2019-03-19T12:42:48.624Z,7.97
2019-03-19T12:45:16.019Z,8.34
2019-03-19T12:47:42.323Z,7.94
2019-03-19T12:50:15.166Z,7.81
2019-03-19T12:52:41.381Z,8.45
2019-03-19T12:55:08.183Z,10.04
2019-03-19T12:57:34.488Z,9.50
2019-03-19T13:00:00.664Z,8.74
2019-03-19T13:02:27.022Z,8.75
2019-03-19T13:04:53.142Z,8.80
2019-03-19T13:07:19.274Z,9.26
2019-03-19T13:09:45.392Z,9.24
2019-03-19T13:12:11.596Z,8.29
2019-03-19T13:14:37.930Z,8.82
2019-03-19T13:17:04.148Z,9.05
2019-03-19T13:19:30.263Z,8.73
2019-03-19T13:21:56.494Z,8.52
2019-03-19T13:24:22.630Z,8.38
2019-03-19T13:26:48.922Z,8.00
2019-03-19T13:29:15.123Z,8.70
2019-03-19T13:31:41.226Z,9.34
2019-03-19T13:34:07.357Z,9.12
2019-03-19T13:36:33.567Z,9.10
2019-03-19T13:38:59.873Z,9.54
2019-03-19T13:41:26.101Z,10.02
2019-03-19T13:43:52.219Z,10.02
2019-03-19T13:46:18.320Z,10.58
2019-03-19T13:48:44.469Z,10.69
2019-03-19T13:51:10.640Z,10.36
2019-03-19T13:53:36.852Z,10.36
2019-03-19T13:56:03.042Z,10.39
2019-03-19T13:58:29.229Z,10.27
2019-03-19T14:00:56.003Z,10.46
2019-03-19T14:03:22.223Z,10.12
2019-03-19T14:05:48.476Z,10.11
2019-03-19T14:08:14.644Z,9.86
2019-03-19T14:10:40.884Z,9.71
2019-03-19T14:13:07.174Z,9.75
2019-03-19T14:15:33.305Z,9.49
2019-03-19T14:17:59.371Z,10.20
2019-03-19T14:20:25.593Z,10.30
2019-03-19T14:22:51.895Z,10.32
2019-03-19T14:25:18.287Z,10.30
2019-03-19T14:27:44.631Z,9.50
2019-03-19T14:30:18.732Z,8.95
2019-03-19T14:32:45.058Z,8.99
2019-03-19T14:35:11.230Z,9.30
2019-03-19T14:37:37.665Z,9.65
2019-03-19T14:40:10.254Z,9.85
2019-03-19T14:42:36.493Z,9.98
2019-03-19T14:45:05.417Z,9.80
2019-03-19T14:47:31.668Z,9.18
2019-03-19T14:49:57.947Z,9.60
2019-03-19T14:52:24.169Z,9.58
2019-03-19T14:54:50.272Z,9.18
2019-03-19T14:57:16.582Z,9.87
2019-03-19T14:59:42.703Z,10.31
2019-03-19T15:02:08.880Z,10.28
2019-03-19T15:04:34.999Z,10.91
2019-03-19T15:07:01.221Z,10.61
2019-03-19T15:09:27.368Z,10.54
2019-03-19T15:11:53.518Z,10.20
2019-03-19T15:14:19.725Z,9.44
2019-03-19T15:16:45.971Z,10.05
2019-03-19T15:19:12.252Z,10.73
2019-03-19T15:21:38.592Z,10.24
2019-03-19T15:24:04.657Z,9.37
2019-03-19T15:26:31.896Z,9.66
2019-03-19T15:28:58.081Z,10.05
2019-03-19T15:31:29.825Z,9.78
2019-03-19T15:33:52.400Z,10.17
2019-03-19T15:36:18.532Z,10.55
2019-03-19T15:38:44.594Z,10.60
2019-03-19T15:41:10.829Z,10.07
2019-03-19T15:43:37.965Z,10.55
2019-03-19T15:46:04.241Z,10.43
2019-03-19T15:48:30.470Z,10.29
2019-03-19T15:50:56.571Z,10.59
2019-03-19T15:53:22.678Z,10.78
2019-03-19T15:55:48.769Z,10.67
2019-03-19T15:58:15.036Z,10.39
2019-03-19T16:00:41.244Z,10.15
2019-03-19T16:03:07.437Z,10.21
2019-03-19T16:05:33.654Z,10.33
2019-03-19T16:07:59.915Z,10.29
2019-03-19T16:10:27.134Z,10.08
2019-03-19T16:12:53.484Z,10.39
2019-03-19T16:15:20.817Z,10.33
2019-03-19T16:17:48.242Z,10.49
2019-03-19T16:20:15.650Z,10.60
2019-03-19T16:22:41.860Z,10.88
2019-03-19T16:25:08.189Z,11.34
2019-03-19T16:27:34.388Z,11.28
2019-03-19T16:30:00.598Z,10.17
2019-03-19T16:32:26.702Z,10.14
2019-03-19T16:34:52.845Z,10.65
2019-03-19T16:37:18.933Z,10.82
2019-03-19T16:39:45.077Z,10.93
2019-03-19T16:42:11.293Z,10.21
2019-03-19T16:44:38.524Z,10.19
2019-03-19T16:47:04.843Z,10.45
2019-03-19T16:49:30.938Z,10.91
2019-03-19T16:51:57.157Z,10.96
2019-03-19T16:54:23.285Z,10.83
2019-03-19T16:56:49.486Z,10.86
2019-03-19T16:59:15.735Z,10.33
2019-03-19T17:01:42.149Z,10.06
2019-03-19T17:04:08.436Z,10.18
2019-03-19T17:06:34.570Z,10.08
2019-03-19T17:09:00.899Z,10.08
2019-03-19T17:11:27.075Z,9.52
2019-03-19T17:13:53.277Z,9.28
2019-03-19T17:16:19.513Z,9.10
2019-03-19T17:18:45.649Z,8.76
2019-03-19T17:21:11.853Z,8.60
2019-03-19T17:23:37.989Z,8.36
2019-03-19T17:26:04.339Z,8.27
2019-03-19T17:28:30.652Z,8.23
2019-03-19T17:30:57.308Z,8.08
2019-03-19T17:33:23.554Z,7.94
2019-03-19T17:35:49.867Z,7.82
2019-03-19T17:38:16.092Z,7.89
2019-03-19T17:40:42.331Z,7.78
2019-03-19T17:43:08.660Z,7.78
2019-03-19T17:45:34.771Z,7.70
2019-03-19T17:48:01.183Z,7.71
2019-03-19T17:50:29.324Z,7.73
2019-03-19T17:52:55.738Z,7.85
2019-03-19T17:55:22.086Z,7.91
2019-03-19T17:57:48.311Z,7.78
2019-03-19T18:00:17.858Z,7.72
2019-03-19T18:02:44.296Z,7.52
2019-03-19T18:07:53.199Z,7.18
2019-03-19T18:10:19.508Z,7.02
2019-03-19T18:12:45.786Z,7.13
2019-03-19T18:15:15.713Z,7.07
2019-03-19T18:17:41.927Z,6.94
2019-03-19T18:20:10.570Z,6.73
2019-03-19T18:22:36.922Z,6.69
2019-03-19T18:25:04.364Z,6.62
2019-03-19T18:27:30.517Z,6.49
2019-03-19T18:29:56.800Z,6.49
2019-03-19T18:32:22.944Z,6.44
2019-03-19T18:34:49.157Z,6.19
2019-03-19T18:37:15.475Z,5.95
2019-03-19T18:39:41.633Z,5.88
2019-03-19T18:42:07.820Z,5.78
2019-03-19T18:44:34.006Z,5.79
2019-03-19T18:47:00.182Z,5.81
2019-03-19T18:49:26.396Z,5.93
2019-03-19T18:51:52.625Z,5.88
2019-03-19T18:54:18.958Z,5.79
2019-03-19T18:56:45.222Z,5.69
2019-03-19T18:59:11.440Z,5.62
2019-03-19T19:01:37.658Z,5.57
2019-03-19T19:04:03.968Z,5.61
2019-03-19T19:06:30.225Z,5.62
2019-03-19T19:08:56.581Z,5.61
2019-03-19T19:11:23.046Z,5.53
2019-03-19T19:13:49.377Z,5.54
2019-03-19T19:16:15.899Z,5.53
2019-03-19T19:18:42.244Z,5.31
2019-03-19T19:21:08.341Z,5.21
2019-03-19T19:23:34.573Z,5.08
2019-03-19T19:26:00.888Z,4.95
2019-03-19T19:28:27.102Z,4.61
2019-03-19T19:30:53.457Z,4.58
2019-03-19T19:33:19.688Z,4.68
2019-03-19T19:35:45.884Z,4.62
2019-03-19T19:38:12.120Z,4.80
2019-03-19T19:40:38.325Z,4.69
2019-03-19T19:43:04.648Z,4.54
2019-03-19T19:45:30.995Z,4.36
2019-03-19T19:47:57.083Z,4.25
2019-03-19T19:50:23.322Z,4.12
2019-03-19T19:52:49.740Z,4.15
2019-03-19T19:55:17.207Z,4.20
2019-03-19T19:57:43.467Z,4.07
2019-03-19T20:00:15.172Z,4.01
2019-03-19T20:02:41.416Z,4.06
2019-03-19T20:05:07.966Z,4.10
2019-03-19T20:07:34.132Z,4.11
2019-03-19T20:10:00.464Z,3.82
2019-03-19T20:12:26.838Z,3.50
2019-03-19T20:14:53.359Z,3.65
2019-03-19T20:17:19.845Z,3.62
2019-03-19T20:19:46.076Z,3.48
2019-03-19T20:22:12.331Z,3.58
2019-03-19T20:24:38.606Z,3.58
2019-03-19T20:27:04.877Z,3.65
2019-03-19T20:29:31.164Z,3.69
2019-03-19T20:31:57.282Z,3.61
2019-03-19T20:34:23.572Z,3.60
2019-03-19T20:36:49.960Z,3.48
2019-03-19T20:39:16.447Z,3.55
2019-03-19T20:41:42.680Z,3.43
2019-03-19T20:44:10.053Z,3.55
2019-03-19T20:46:36.285Z,3.19
2019-03-19T20:49:02.745Z,3.19
2019-03-19T20:51:29.195Z,3.11
2019-03-19T20:53:55.422Z,3.14
2019-03-19T20:56:21.559Z,3.22
2019-03-19T20:58:47.758Z,3.11
2019-03-19T21:01:14.189Z,2.84
2019-03-19T21:03:40.403Z,2.92
2019-03-19T21:06:06.695Z,2.82
2019-03-19T21:08:32.925Z,3.06
2019-03-19T21:10:59.105Z,2.86
2019-03-19T21:13:25.238Z,2.93
2019-03-19T21:15:51.562Z,2.92
2019-03-19T21:18:17.856Z,3.02
2019-03-19T21:20:44.099Z,2.89
2019-03-19T21:23:10.350Z,2.92
2019-03-19T21:25:36.525Z,2.89
2019-03-19T21:28:13.205Z,2.89
2019-03-19T21:30:31.162Z,2.82
2019-03-19T21:32:57.488Z,2.84
2019-03-19T21:35:24.180Z,2.79
2019-03-19T21:37:50.415Z,2.76
2019-03-19T21:40:16.928Z,2.67
2019-03-19T21:42:43.268Z,2.70
2019-03-19T21:45:13.193Z,2.64
2019-03-19T21:47:39.275Z,2.45
2019-03-19T21:50:15.156Z,2.53
2019-03-19T21:52:41.341Z,2.58
2019-03-19T21:55:08.871Z,2.70
2019-03-19T21:57:35.013Z,2.63
2019-03-19T22:00:08.384Z,2.37
2019-03-19T22:02:35.295Z,2.50
2019-03-19T22:05:01.590Z,2.38
2019-03-19T22:07:27.909Z,2.30
2019-03-19T22:09:54.234Z,2.22
2019-03-19T22:12:21.618Z,2.25
2019-03-19T22:14:47.827Z,2.27
2019-03-19T22:17:13.972Z,2.16
2019-03-19T22:19:40.278Z,2.20
2019-03-19T22:22:06.499Z,2.17
2019-03-19T22:24:32.641Z,2.20
2019-03-19T22:26:58.706Z,2.05
2019-03-19T22:29:24.807Z,2.02
2019-03-19T22:31:51.133Z,2.11
2019-03-19T22:34:17.440Z,2.10
2019-03-19T22:36:43.515Z,2.07
2019-03-19T22:39:09.732Z,2.04
2019-03-19T22:41:36.127Z,2.02
2019-03-19T22:44:02.505Z,2.07
2019-03-19T22:46:28.595Z,1.91
2019-03-19T22:48:54.815Z,1.94
2019-03-19T22:51:21.015Z,1.96
2019-03-19T22:53:47.082Z,2.03
2019-03-19T22:56:14.316Z,2.02
2019-03-19T22:58:40.391Z,1.86
2019-03-19T23:01:06.740Z,1.86
2019-03-19T23:03:34.926Z,1.89
2019-03-19T23:06:01.095Z,1.84
2019-03-19T23:08:27.338Z,1.88
2019-03-19T23:10:53.749Z,1.74
2019-03-19T23:13:20.038Z,1.65
2019-03-19T23:15:46.356Z,1.71
2019-03-19T23:18:12.525Z,1.71
2019-03-19T23:20:38.823Z,1.77
2019-03-19T23:23:05.089Z,1.74
2019-03-19T23:25:32.348Z,1.77
2019-03-19T23:27:58.725Z,1.83
2019-03-19T23:30:24.807Z,1.83
2019-03-19T23:32:51.100Z,1.85
2019-03-19T23:35:17.369Z,1.91
2019-03-19T23:37:43.636Z,1.86
2019-03-19T23:40:11.419Z,1.92
2019-03-19T23:42:37.613Z,1.73
2019-03-19T23:45:06.719Z,1.70
2019-03-19T23:47:32.891Z,1.70
2019-03-19T23:49:59.018Z,1.80
2019-03-19T23:52:25.120Z,1.68
2019-03-19T23:54:51.241Z,1.62
2019-03-19T23:57:17.436Z,1.50
2019-03-19T23:59:43.551Z,1.51
